Time;durP1;ratioP1;P1;durP2;ratioP2;P2;SDS_P1;SDS_P2;PMS_P1;PMS_P2;Temp;Humidity;BMP_temperature;BMP_pressure;BME280_temperature;BME280_humidity;BME280_pressure;Samples;Min_cycle;Max_cycle;Signal;HPM_P1;HPM_P2
2022/01/14 07:44:44;;;;;;;50.67;19.08;;;-0.70;99.90;;;;;;4946139;28;19930;-57
2022/01/14 07:47:10;;;;;;;30.15;19.25;;;-0.70;99.90;;;;;;4953951;28;20094;-53
2022/01/14 07:49:36;;;;;;;35.90;16.65;;;-0.80;99.90;;;;;;4953152;28;20019;-55
2022/01/14 07:52:02;;;;;;;34.58;18.38;;;-0.70;99.90;;;;;;4954927;29;20039;-53
2022/01/14 07:54:28;;;;;;;35.50;19.65;;;-0.70;99.90;;;;;;4954315;29;20042;-54
2022/01/14 07:56:57;;;;;;;32.83;18.23;;;-0.60;99.90;;;;;;4952420;28;20855;-52
2022/01/14 07:59:25;;;;;;;34.63;20.35;;;-0.70;99.90;;;;;;4953066;28;20023;-57
2022/01/14 08:01:54;;;;;;;33.75;19.88;;;-0.70;99.90;;;;;;4952354;28;20034;-57
2022/01/14 08:04:21;;;;;;;45.88;17.08;;;-0.70;99.90;;;;;;4937627;29;20031;-58
2022/01/14 08:06:49;;;;;;;31.50;16.25;;;-0.70;99.90;;;;;;4956028;29;20126;-56
2022/01/14 08:09:17;;;;;;;29.63;16.75;;;-0.50;99.90;;;;;;4952376;29;20561;-58
2022/01/14 08:11:44;;;;;;;65.93;17.52;;;-0.50;99.90;;;;;;4952288;28;20114;-58
2022/01/14 08:14:11;;;;;;;45.00;18.20;;;-0.80;99.90;;;;;;4951995;29;20034;-58
2022/01/14 08:16:37;;;;;;;40.92;19.40;;;-0.80;99.90;;;;;;4952204;29;20114;-57
2022/01/14 08:19:03;;;;;;;49.00;18.58;;;-0.70;99.90;;;;;;4954965;28;20027;-57
2022/01/14 08:21:29;;;;;;;41.22;17.73;;;-0.70;99.90;;;;;;4953735;29;20023;-56
2022/01/14 08:23:55;;;;;;;71.15;18.17;;;-0.70;99.90;;;;;;4952351;28;20090;-56
2022/01/14 08:26:21;;;;;;;35.35;16.08;;;-0.60;99.90;;;;;;4953265;29;20105;-57
2022/01/14 08:28:46;;;;;;;30.10;15.10;;;-0.50;99.90;;;;;;4952265;29;20019;-57
2022/01/14 08:31:13;;;;;;;30.15;14.88;;;-0.50;99.90;;;;;;4952774;29;20037;-57
2022/01/14 08:33:39;;;;;;;32.92;15.95;;;-0.50;99.90;;;;;;4954987;29;20795;-57
2022/01/14 08:36:05;;;;;;;24.88;15.00;;;-0.40;99.90;;;;;;4951840;28;20031;-58
2022/01/14 08:38:30;;;;;;;29.02;16.08;;;-0.20;99.90;;;;;;4951946;29;20031;-57
2022/01/14 08:40:56;;;;;;;21.20;14.07;;;-0.30;99.90;;;;;;4951740;29;20283;-57
2022/01/14 08:43:22;;;;;;;19.00;13.43;;;-0.20;99.90;;;;;;4952254;29;20102;-57
2022/01/14 08:45:48;;;;;;;20.73;14.48;;;0.00;99.90;;;;;;4955576;29;20103;-58
2022/01/14 08:48:14;;;;;;;29.42;21.75;;;-0.20;99.90;;;;;;4951652;29;20031;-57
2022/01/14 08:50:40;;;;;;;31.27;17.05;;;-0.20;99.90;;;;;;4951883;29;20031;-57
2022/01/14 08:53:08;;;;;;;29.70;14.55;;;-0.30;99.90;;;;;;4951976;29;20038;-57
2022/01/14 08:55:35;;;;;;;36.75;23.08;;;-0.30;99.90;;;;;;4951817;29;20028;-57
2022/01/14 08:58:03;;;;;;;44.95;16.88;;;-0.30;99.90;;;;;;4953347;28;20538;-57
2022/01/14 09:00:29;;;;;;;34.35;16.90;;;-0.30;99.90;;;;;;4952965;28;20053;-57
2022/01/14 09:02:56;;;;;;;24.45;13.63;;;-0.30;99.90;;;;;;4951414;28;20122;-57
2022/01/14 09:05:23;;;;;;;22.58;14.23;;;-0.10;99.90;;;;;;4952099;29;20078;-57
2022/01/14 09:07:50;;;;;;;57.08;27.48;;;0.10;99.90;;;;;;4951501;29;20039;-57
2022/01/14 09:10:16;;;;;;;24.45;15.85;;;0.40;99.90;;;;;;4952280;28;20107;-57
2022/01/14 09:12:42;;;;;;;15.93;13.90;;;0.50;99.90;;;;;;4954427;29;20558;-57
2022/01/14 09:15:09;;;;;;;16.40;12.75;;;0.20;99.90;;;;;;4951638;29;20031;-57
2022/01/14 09:17:35;;;;;;;16.05;13.90;;;0.20;99.90;;;;;;4951276;29;20035;-59
2022/01/14 09:20:03;;;;;;;15.13;12.95;;;0.60;99.90;;;;;;4951345;29;20031;-59
2022/01/14 09:22:30;;;;;;;13.35;11.35;;;0.60;99.90;;;;;;4952927;29;20026;-58
2022/01/14 09:24:58;;;;;;;14.50;11.90;;;0.60;99.90;;;;;;4953805;28;20035;-59
2022/01/14 09:27:23;;;;;;;11.85;10.65;;;0.70;99.90;;;;;;4954086;29;20043;-58
2022/01/14 09:29:49;;;;;;;13.48;11.90;;;1.00;99.90;;;;;;4951019;29;20542;-59
2022/01/14 09:32:15;;;;;;;13.75;12.35;;;0.80;99.90;;;;;;4951193;29;20031;-58
2022/01/14 09:34:41;;;;;;;12.30;11.00;;;0.90;99.90;;;;;;4951140;29;20055;-59
2022/01/14 09:37:06;;;;;;;11.93;10.63;;;1.40;99.90;;;;;;4952965;29;20113;-59
2022/01/14 09:39:33;;;;;;;11.80;10.50;;;1.70;99.90;;;;;;4953045;29;20042;-58
2022/01/14 09:42:00;;;;;;;11.25;10.02;;;2.10;99.90;;;;;;4950594;28;20027;-58
2022/01/14 09:44:26;;;;;;;10.88;9.75;;;2.40;99.90;;;;;;4950986;28;20047;-58
2022/01/14 09:46:52;;;;;;;12.18;10.93;;;1.90;99.90;;;;;;4950924;28;20504;-58
2022/01/14 09:49:19;;;;;;;11.82;10.57;;;1.40;99.90;;;;;;4951194;29;20066;-58
2022/01/14 09:51:46;;;;;;;14.07;12.60;;;1.30;99.90;;;;;;4954410;29;20495;-59
2022/01/14 09:54:12;;;;;;;12.43;11.07;;;1.30;99.90;;;;;;4950402;29;20035;-58
2022/01/14 09:56:39;;;;;;;11.00;9.90;;;1.50;99.90;;;;;;4948928;29;20508;-58
2022/01/14 09:59:05;;;;;;;15.30;12.55;;;2.10;99.90;;;;;;4951002;28;20038;-58
2022/01/14 10:01:43;;;;;;;15.45;13.85;;;2.30;99.90;;;;;;4951484;29;20054;-58
2022/01/14 10:04:14;;;;;;;11.95;10.65;;;3.00;99.90;;;;;;4952230;28;20058;-59
2022/01/14 10:06:52;;;;;;;11.70;10.50;;;4.70;99.90;;;;;;4953521;29;20077;-59
2022/01/14 10:09:25;;;;;;;18.05;14.40;;;6.40;99.90;;;;;;4952693;28;20027;-58
2022/01/14 10:12:03;;;;;;;11.35;10.15;;;7.30;99.90;;;;;;4949996;28;20070;-58
2022/01/14 10:14:29;;;;;;;8.23;7.38;;;8.00;99.90;;;;;;4950286;28;20031;-58
2022/01/14 10:16:57;;;;;;;14.30;10.63;;;8.10;99.90;;;;;;4950086;28;20492;-58
2022/01/14 10:19:28;;;;;;;10.82;9.45;;;6.20;99.90;;;;;;4950839;28;20369;-58
2022/01/14 10:21:55;;;;;;;9.95;8.70;;;3.80;99.90;;;;;;4953334;28;20054;-58
2022/01/14 10:24:23;;;;;;;9.18;8.07;;;4.10;99.90;;;;;;4951238;29;20114;-58
2022/01/14 10:26:58;;;;;;;9.80;8.85;;;4.30;99.90;;;;;;4949770;28;20078;-58
2022/01/14 10:29:33;;;;;;;8.38;7.05;;;5.90;99.90;;;;;;4950188;28;20399;-57
2022/01/14 10:32:01;;;;;;;7.20;6.50;;;7.60;99.90;;;;;;4948794;28;20444;-58
2022/01/14 10:34:28;;;;;;;7.78;7.07;;;7.80;99.90;;;;;;4950222;28;20110;-58
2022/01/14 10:37:14;;;;;;;7.10;6.40;;;8.20;99.90;;;;;;4953032;28;20094;-58
2022/01/14 10:39:47;;;;;;;7.22;6.25;;;7.40;99.90;;;;;;4952181;29;20047;-58
2022/01/14 10:42:29;;;;;;;8.00;7.20;;;7.50;99.90;;;;;;4950638;28;20122;-58
2022/01/14 10:45:09;;;;;;;10.50;6.32;;;7.40;99.90;;;;;;4949645;28;20098;-58
2022/01/14 10:47:35;;;;;;;6.90;6.20;;;8.00;99.90;;;;;;4949869;28;20038;-59
2022/01/14 10:50:00;;;;;;;10.02;7.70;;;8.90;99.90;;;;;;4950129;28;20034;-57
2022/01/14 10:52:27;;;;;;;6.85;6.15;;;8.30;99.90;;;;;;4949122;29;20115;-59
2022/01/14 10:54:58;;;;;;;8.77;7.82;;;8.60;99.90;;;;;;4952800;28;20071;-59
2022/01/14 10:57:27;;;;;;;6.47;5.88;;;8.40;99.90;;;;;;4938348;28;20123;-58
2022/01/14 11:00:12;;;;;;;10.20;9.00;;;8.30;99.90;;;;;;4946784;28;20024;-57
2022/01/14 11:02:41;;;;;;;30.92;27.70;;;7.90;99.90;;;;;;4949649;28;20031;-59
2022/01/14 11:05:08;;;;;;;7.88;7.07;;;7.60;99.90;;;;;;4949692;29;20083;-59
2022/01/14 11:07:35;;;;;;;7.57;6.78;;;8.20;99.90;;;;;;4949388;28;20043;-59
2022/01/14 11:10:11;;;;;;;5.68;5.18;;;7.60;99.90;;;;;;4952159;28;20361;-59
2022/01/14 11:12:37;;;;;;;7.50;6.57;;;8.20;99.90;;;;;;4952437;29;20063;-59
2022/01/14 11:15:03;;;;;;;6.97;6.38;;;8.10;99.90;;;;;;4949562;29;20074;-59
2022/01/14 11:17:29;;;;;;;5.70;5.20;;;7.70;99.90;;;;;;4949496;29;20645;-57
2022/01/14 11:19:56;;;;;;;6.97;6.28;;;8.50;99.90;;;;;;4951678;28;20046;-59
2022/01/14 11:25:10;;;;;;;6.65;6.00;;;7.60;99.90;;;;;;4955821;29;20049;-59
2022/01/14 11:27:37;;;;;;;7.03;6.32;;;8.00;99.90;;;;;;4955659;29;20070;-58
2022/01/14 11:30:04;;;;;;;6.80;6.15;;;6.50;99.90;;;;;;4953296;28;20122;-58
2022/01/14 11:32:56;;;;;;;6.20;5.60;;;6.80;99.90;;;;;;4953320;28;20039;-59
2022/01/14 11:35:26;;;;;;;7.50;6.53;;;7.40;99.90;;;;;;4952379;28;20115;-58
2022/01/14 11:37:52;;;;;;;5.95;5.40;;;7.70;99.90;;;;;;4952993;28;20102;-59
2022/01/14 11:40:19;;;;;;;6.88;6.13;;;8.30;99.90;;;;;;4953570;28;20020;-59
2022/01/14 11:42:59;;;;;;;7.20;6.50;;;7.40;99.90;;;;;;4956210;29;20075;-58
2022/01/14 11:45:46;;;;;;;6.35;5.75;;;7.10;99.90;;;;;;4955488;29;20042;-59
2022/01/14 11:48:33;;;;;;;10.00;7.45;;;8.00;99.90;;;;;;4953792;29;20039;-58
2022/01/14 11:51:01;;;;;;;9.10;7.40;;;8.30;99.90;;;;;;4952790;28;20034;-58
2022/01/14 11:53:38;;;;;;;8.23;7.38;;;7.70;99.90;;;;;;4951703;28;20034;-58
2022/01/14 11:56:25;;;;;;;7.15;6.45;;;6.50;99.90;;;;;;4953043;28;20027;-57
2022/01/14 11:58:51;;;;;;;8.23;6.78;;;7.10;99.90;;;;;;4953952;29;20047;-57
2022/01/14 12:01:33;;;;;;;7.28;6.57;;;6.30;99.90;;;;;;4953674;28;20042;-57
2022/01/14 12:04:00;;;;;;;7.93;7.13;;;5.90;99.90;;;;;;4955463;28;20039;-57
2022/01/14 12:06:54;;;;;;;7.13;6.43;;;6.50;99.90;;;;;;4954295;28;20058;-58
2022/01/14 12:09:23;;;;;;;7.57;6.87;;;6.90;99.90;;;;;;4955635;28;20035;-58
2022/01/14 12:12:20;;;;;;;6.97;6.28;;;7.10;99.90;;;;;;4952391;28;20034;-58
2022/01/14 12:14:55;;;;;;;6.68;6.05;;;7.50;99.90;;;;;;4952210;29;20086;-59
2022/01/14 12:17:31;;;;;;;6.95;6.25;;;7.10;99.90;;;;;;4952197;28;20050;-59
2022/01/14 12:20:09;;;;;;;10.32;8.95;;;7.00;99.90;;;;;;4951976;29;20038;-58
2022/01/14 12:22:35;;;;;;;9.82;8.82;;;7.10;99.90;;;;;;4951778;28;20558;-59
2022/01/14 12:25:01;;;;;;;9.68;7.13;;;6.80;99.90;;;;;;4954773;29;20031;-59
2022/01/14 12:27:31;;;;;;;8.40;7.60;;;7.10;99.90;;;;;;4953782;29;20531;-58
2022/01/14 12:30:04;;;;;;;8.85;6.80;;;6.70;99.90;;;;;;4952229;28;20031;-59
2022/01/14 12:32:30;;;;;;;8.77;7.30;;;6.60;99.90;;;;;;4951182;28;20142;-59
2022/01/14 12:34:58;;;;;;;9.07;7.18;;;6.90;99.90;;;;;;4952109;29;20118;-58
2022/01/14 12:37:28;;;;;;;8.43;7.10;;;6.70;99.90;;;;;;4953319;28;20163;-58
2022/01/14 12:39:55;;;;;;;12.02;8.60;;;7.00;99.90;;;;;;4955350;28;20059;-58
2022/01/14 12:42:22;;;;;;;15.90;12.25;;;6.70;99.90;;;;;;4953395;28;20545;-59
2022/01/14 12:44:52;;;;;;;10.27;9.27;;;6.30;99.90;;;;;;4951752;29;20452;-58
2022/01/14 12:47:23;;;;;;;15.38;13.75;;;6.70;99.90;;;;;;4951816;28;20045;-58
2022/01/14 12:49:50;;;;;;;9.35;8.45;;;6.80;99.90;;;;;;4952197;28;20031;-59
2022/01/14 12:52:37;;;;;;;13.77;12.30;;;6.70;99.90;;;;;;4952523;28;20028;-59
2022/01/14 12:55:06;;;;;;;7.47;6.63;;;6.60;99.90;;;;;;4954398;28;20019;-59
2022/01/14 12:57:32;;;;;;;6.90;6.20;;;6.10;99.90;;;;;;4953527;29;20381;-58
2022/01/14 12:59:57;;;;;;;10.88;9.75;;;6.30;99.90;;;;;;4951658;29;20034;-59
2022/01/14 13:02:26;;;;;;;12.57;11.07;;;6.70;99.90;;;;;;4951470;28;20023;-58
2022/01/14 13:05:13;;;;;;;19.33;16.17;;;6.70;99.90;;;;;;4951472;29;20106;-59
2022/01/14 13:07:39;;;;;;;8.10;7.30;;;7.30;99.90;;;;;;4938807;29;20046;-58
2022/01/14 13:10:07;;;;;;;9.75;8.43;;;7.30;99.90;;;;;;4954263;29;20035;-58
2022/01/14 13:12:40;;;;;;;6.50;5.82;;;7.40;99.90;;;;;;4953378;29;20058;-59
2022/01/14 13:15:13;;;;;;;10.00;9.00;;;7.60;99.90;;;;;;4951477;28;20094;-59
2022/01/14 13:17:53;;;;;;;9.65;7.78;;;7.10;99.90;;;;;;4952609;28;20054;-59
2022/01/14 13:20:19;;;;;;;7.38;6.05;;;7.40;99.90;;;;;;4951397;28;20074;-58
2022/01/14 13:22:47;;;;;;;9.88;7.85;;;7.10;99.90;;;;;;4951371;28;20088;-58
2022/01/14 13:25:20;;;;;;;8.23;6.82;;;7.10;99.90;;;;;;4952690;28;20042;-59
2022/01/14 13:27:53;;;;;;;7.43;6.47;;;7.30;99.90;;;;;;4954827;29;20039;-59
2022/01/14 13:30:29;;;;;;;8.87;7.97;;;7.10;99.90;;;;;;4953155;29;20067;-58
2022/01/14 13:32:57;;;;;;;7.40;6.53;;;6.80;99.90;;;;;;4950894;29;20038;-58
2022/01/14 13:35:27;;;;;;;10.43;8.50;;;7.30;99.90;;;;;;4950936;28;20114;-59
2022/01/14 13:38:01;;;;;;;9.43;8.40;;;7.90;99.90;;;;;;4951552;28;20389;-60
2022/01/14 13:40:29;;;;;;;5.97;5.38;;;8.30;99.90;;;;;;4939266;29;20091;-59
2022/01/14 13:43:21;;;;;;;5.22;4.72;;;8.00;99.90;;;;;;4953728;28;20058;-59
2022/01/14 13:45:48;;;;;;;9.10;8.00;;;8.10;99.90;;;;;;4954565;29;20026;-59
2022/01/14 13:50:56;;;;;;;11.05;7.88;;;7.60;99.90;;;;;;4950699;28;20027;-60
2022/01/14 13:53:32;;;;;;;7.35;6.47;;;7.30;99.90;;;;;;4951237;28;20022;-59
2022/01/14 13:56:12;;;;;;;7.10;6.30;;;7.20;99.90;;;;;;4952180;28;20048;-58
2022/01/14 13:58:41;;;;;;;9.35;7.70;;;7.30;99.90;;;;;;4950684;28;20496;-59
2022/01/14 14:01:08;;;;;;;16.40;11.65;;;7.50;99.90;;;;;;4952754;28;20046;-59
2022/01/14 14:03:47;;;;;;;6.10;5.40;;;7.70;99.90;;;;;;4952295;29;20046;-58
2022/01/14 14:06:22;;;;;;;11.18;8.85;;;7.70;99.90;;;;;;4950556;28;20432;-59
2022/01/14 14:09:07;;;;;;;6.05;5.45;;;7.80;99.90;;;;;;4950412;28;20039;-59
2022/01/14 14:16:59;;;;;;;9.45;7.35;;;7.50;99.90;;;;;;4950629;29;20031;-59
2022/01/14 14:19:26;;;;;;;8.73;7.22;;;7.60;99.90;;;;;;4935286;29;20031;-59
2022/01/14 14:22:13;;;;;;;15.55;11.52;;;7.70;99.90;;;;;;4953851;28;20040;-59
2022/01/14 14:24:40;;;;;;;100.38;51.38;;;7.80;99.90;;;;;;4954218;29;20118;-59
2022/01/14 14:27:15;;;;;;;7.60;5.88;;;7.80;99.90;;;;;;4950082;28;20400;-59
2022/01/14 14:29:50;;;;;;;6.72;5.88;;;7.80;99.90;;;;;;4949457;28;20031;-59
2022/01/14 14:32:21;;;;;;;7.65;6.40;;;7.80;99.90;;;;;;4950045;28;20038;-59
2022/01/14 14:34:48;;;;;;;5.97;5.32;;;7.90;99.90;;;;;;4951802;28;20115;-59
2022/01/14 14:37:14;;;;;;;8.20;6.15;;;8.00;99.90;;;;;;4951390;28;20114;-59
2022/01/14 14:39:40;;;;;;;6.75;6.15;;;7.90;99.90;;;;;;4952640;29;20039;-59
2022/01/14 14:42:06;;;;;;;8.15;7.35;;;8.10;99.90;;;;;;4949926;28;20103;-59
2022/01/14 14:44:32;;;;;;;7.03;5.80;;;7.90;99.90;;;;;;4949852;28;20054;-59
2022/01/14 14:46:57;;;;;;;7.15;6.45;;;7.90;99.90;;;;;;4949829;29;20055;-60
2022/01/14 14:49:23;;;;;;;6.82;6.13;;;8.10;99.90;;;;;;4950062;29;20026;-59
2022/01/14 14:51:49;;;;;;;6.25;5.65;;;8.10;99.90;;;;;;4953633;28;20066;-59
2022/01/14 14:54:14;;;;;;;6.25;5.65;;;8.30;99.90;;;;;;4949409;28;20047;-59
2022/01/14 14:56:40;;;;;;;7.57;6.88;;;8.10;99.90;;;;;;4949867;28;20032;-59
2022/01/14 14:59:06;;;;;;;8.13;7.32;;;8.10;99.90;;;;;;4949674;29;20106;-60
2022/01/14 15:01:31;;;;;;;9.90;6.70;;;8.10;99.90;;;;;;4949492;29;20601;-59
2022/01/14 15:03:57;;;;;;;8.57;6.90;;;8.10;99.90;;;;;;4952086;29;20035;-59
2022/01/14 15:06:23;;;;;;;12.05;10.75;;;8.20;99.90;;;;;;4951083;29;20023;-59
2022/01/14 15:08:48;;;;;;;10.57;8.40;;;8.20;99.90;;;;;;4949620;29;20050;-60
2022/01/14 15:11:15;;;;;;;9.73;7.38;;;8.10;99.90;;;;;;4949751;29;20039;-59
2022/01/14 15:13:41;;;;;;;7.00;6.30;;;8.10;99.90;;;;;;4950913;28;20036;-59
2022/01/14 15:18:39;;;;;;;7.50;6.30;;;8.00;99.90;;;;;;4952643;29;20031;-59
2022/01/14 15:21:05;;;;;;;7.53;6.30;;;8.00;99.90;;;;;;4949420;29;20046;-59
2022/01/14 15:23:31;;;;;;;9.13;8.07;;;8.00;99.90;;;;;;4949410;29;20027;-59
2022/01/14 15:25:56;;;;;;;6.55;5.80;;;8.00;99.90;;;;;;4949457;29;20035;-59
2022/01/14 15:28:22;;;;;;;8.05;7.18;;;8.00;99.90;;;;;;4949666;28;20407;-59
2022/01/14 15:30:48;;;;;;;8.38;7.55;;;8.00;99.90;;;;;;4953221;29;20024;-59
2022/01/14 15:33:13;;;;;;;8.55;7.65;;;8.10;99.90;;;;;;4949424;28;20522;-59
2022/01/14 15:35:39;;;;;;;7.10;6.32;;;8.00;99.90;;;;;;4949363;29;20042;-59
2022/01/14 15:38:06;;;;;;;7.32;6.63;;;8.00;99.90;;;;;;4949454;28;20062;-59
2022/01/14 15:40:35;;;;;;;6.43;5.80;;;8.10;99.90;;;;;;4949326;28;20409;-60
2022/01/14 15:43:02;;;;;;;9.57;8.10;;;8.20;99.90;;;;;;4951382;28;20071;-59
2022/01/14 15:45:28;;;;;;;8.27;7.28;;;8.00;99.90;;;;;;4950412;28;20496;-59
2022/01/14 15:47:53;;;;;;;9.40;8.40;;;7.90;99.90;;;;;;4949220;29;20094;-59
2022/01/14 15:50:19;;;;;;;9.85;8.85;;;7.90;99.90;;;;;;4949025;29;20083;-59
2022/01/14 15:52:45;;;;;;;15.10;13.35;;;7.80;99.90;;;;;;4951240;29;20051;-59
2022/01/14 15:55:11;;;;;;;8.25;7.10;;;7.80;99.90;;;;;;4951141;28;20027;-59
2022/01/14 15:57:38;;;;;;;8.48;7.60;;;7.70;99.90;;;;;;4951745;29;20519;-59
2022/01/14 16:00:07;;;;;;;10.43;7.57;;;7.60;99.90;;;;;;4948957;28;20032;-59
2022/01/14 16:02:33;;;;;;;11.35;9.02;;;7.60;99.90;;;;;;4949028;29;20057;-59
2022/01/14 16:04:59;;;;;;;9.32;8.32;;;7.50;99.90;;;;;;4949246;28;20078;-59
2022/01/14 16:07:27;;;;;;;9.05;8.15;;;7.60;99.90;;;;;;4951639;28;20039;-58
2022/01/14 16:09:58;;;;;;;9.38;6.97;;;7.50;99.90;;;;;;4957020;29;20400;-59
2022/01/14 16:12:25;;;;;;;9.82;8.05;;;7.40;99.90;;;;;;4953822;29;20039;-59
2022/01/14 16:14:51;;;;;;;21.02;13.75;;;7.30;99.90;;;;;;4952113;28;20086;-59
2022/01/14 16:17:17;;;;;;;23.63;16.85;;;7.30;99.90;;;;;;4952567;29;20028;-59
2022/01/14 16:19:42;;;;;;;42.75;29.17;;;7.20;99.90;;;;;;4952864;29;20600;-59
2022/01/14 16:22:08;;;;;;;52.72;45.05;;;7.10;99.90;;;;;;4954612;29;20024;-60
2022/01/14 16:24:36;;;;;;;51.65;38.08;;;7.00;99.90;;;;;;4954281;29;20031;-59
2022/01/14 16:27:02;;;;;;;15.82;11.27;;;7.10;99.90;;;;;;4952257;28;20054;-59
2022/01/14 16:29:44;;;;;;;15.77;10.68;;;7.10;99.90;;;;;;4952260;28;20035;-60
2022/01/14 16:32:10;;;;;;;17.80;13.05;;;6.90;99.90;;;;;;4953469;29;20399;-60
2022/01/14 16:34:35;;;;;;;17.77;13.65;;;6.70;99.90;;;;;;4952385;29;20020;-60
2022/01/14 16:37:01;;;;;;;33.67;22.50;;;6.50;99.90;;;;;;4954336;28;20046;-60
2022/01/14 16:39:27;;;;;;;31.65;23.02;;;6.40;99.90;;;;;;4953628;29;20034;-59
2022/01/14 16:41:53;;;;;;;25.52;18.92;;;6.30;99.90;;;;;;4952026;29;20055;-60
2022/01/14 16:44:18;;;;;;;24.85;17.60;;;6.10;99.90;;;;;;4951910;29;20043;-59
2022/01/14 16:46:44;;;;;;;28.15;20.98;;;6.00;99.90;;;;;;4951931;28;20171;-59
2022/01/14 16:49:11;;;;;;;30.70;24.20;;;5.70;99.90;;;;;;4954050;28;20031;-59
2022/01/14 16:51:37;;;;;;;31.40;27.60;;;5.60;99.90;;;;;;4954104;29;20027;-59
2022/01/14 16:54:03;;;;;;;34.10;26.75;;;5.30;99.90;;;;;;4951717;29;20117;-60
2022/01/14 16:56:29;;;;;;;96.45;69.25;;;5.20;99.90;;;;;;4951969;29;20056;-60
2022/01/14 16:58:55;;;;;;;99.45;72.20;;;5.00;99.90;;;;;;4951447;28;20031;-60
2022/01/14 17:01:20;;;;;;;97.75;73.28;;;4.90;99.90;;;;;;4952441;29;20051;-59
2022/01/14 17:03:47;;;;;;;36.25;26.52;;;4.60;99.90;;;;;;4955078;29;20031;-59
2022/01/14 17:06:14;;;;;;;60.08;33.08;;;4.70;99.90;;;;;;4951521;29;20131;-59
2022/01/14 17:08:40;;;;;;;73.65;42.97;;;4.50;99.90;;;;;;4951394;28;20042;-59
2022/01/14 17:11:05;;;;;;;137.65;69.88;;;4.40;99.90;;;;;;4952812;29;20031;-59
2022/01/14 17:13:31;;;;;;;137.88;63.47;;;4.40;99.90;;;;;;4952419;29;20031;-58
2022/01/14 17:15:57;;;;;;;309.23;95.03;;;3.90;99.90;;;;;;4954515;29;20030;-60
2022/01/14 17:18:23;;;;;;;416.35;118.22;;;4.10;99.90;;;;;;4951936;28;20033;-59
2022/01/14 17:20:49;;;;;;;395.23;116.15;;;3.90;99.90;;;;;;4951245;29;20027;-59
2022/01/14 17:23:15;;;;;;;326.92;98.75;;;3.80;99.90;;;;;;4950908;29;20038;-59
2022/01/14 17:25:42;;;;;;;375.42;110.72;;;3.30;99.90;;;;;;4950861;29;20024;-59
2022/01/14 17:28:08;;;;;;;334.35;99.78;;;3.30;99.90;;;;;;4953573;28;20448;-59
2022/01/14 17:30:34;;;;;;;311.02;95.38;;;3.50;99.90;;;;;;4952899;29;20031;-60
2022/01/14 17:33:00;;;;;;;429.80;132.75;;;3.40;99.90;;;;;;4950952;29;20031;-59
2022/01/14 17:35:26;;;;;;;245.02;105.43;;;3.10;99.90;;;;;;4950985;29;20399;-60
2022/01/14 17:37:52;;;;;;;336.45;129.07;;;2.90;99.90;;;;;;4951322;29;20034;-59
2022/01/14 17:40:18;;;;;;;271.40;119.55;;;2.70;99.90;;;;;;4951557;29;20036;-60
2022/01/14 17:42:44;;;;;;;121.35;68.93;;;2.70;99.90;;;;;;4953621;29;20122;-60
2022/01/14 17:45:13;;;;;;;240.98;150.10;;;2.90;99.90;;;;;;4950744;29;20066;-60
2022/01/14 17:47:41;;;;;;;374.30;266.20;;;2.90;99.90;;;;;;4950557;29;20035;-60
2022/01/14 17:50:08;;;;;;;252.05;148.32;;;2.80;99.90;;;;;;4951976;29;20082;-60
2022/01/14 17:52:34;;;;;;;124.68;81.85;;;2.60;99.90;;;;;;4950972;28;20034;-60
2022/01/14 17:55:00;;;;;;;58.05;40.30;;;2.30;99.90;;;;;;4949933;28;20035;-60
2022/01/14 17:57:25;;;;;;;173.25;132.60;;;2.10;99.90;;;;;;4950781;28;20027;-60
2022/01/14 17:59:51;;;;;;;241.85;161.45;;;2.20;99.90;;;;;;4950373;28;20059;-61
2022/01/14 18:02:17;;;;;;;240.85;152.95;;;2.30;99.90;;;;;;4950287;28;20404;-60
2022/01/14 18:04:42;;;;;;;216.23;150.13;;;2.20;99.90;;;;;;4950493;29;20031;-61
2022/01/14 18:07:08;;;;;;;97.10;84.18;;;2.10;99.90;;;;;;4950552;28;20580;-61
2022/01/14 18:09:34;;;;;;;85.97;73.47;;;2.00;99.90;;;;;;4951681;29;20106;-62
2022/01/14 18:12:17;;;;;;;151.73;132.55;;;1.80;99.90;;;;;;4950004;29;20055;-61
2022/01/14 18:14:42;;;;;;;97.45;86.75;;;1.70;99.90;;;;;;4950249;29;20392;-60
2022/01/14 18:17:08;;;;;;;93.07;81.90;;;1.80;99.90;;;;;;4950088;29;20046;-61
2022/01/14 18:19:34;;;;;;;80.88;72.28;;;1.70;99.90;;;;;;4949677;28;20030;-59
2022/01/14 18:22:00;;;;;;;36.95;32.92;;;1.70;99.90;;;;;;4952552;28;20031;-60
2022/01/14 18:24:26;;;;;;;46.42;38.08;;;1.60;99.90;;;;;;4950996;29;20028;-60
2022/01/14 18:26:53;;;;;;;107.97;80.93;;;1.40;99.90;;;;;;4949369;28;20473;-59
2022/01/14 18:29:18;;;;;;;219.65;150.40;;;1.40;99.90;;;;;;4947509;28;20038;-60
2022/01/14 18:31:44;;;;;;;182.45;138.75;;;1.40;99.90;;;;;;4947539;29;20027;-59
2022/01/14 18:34:11;;;;;;;136.38;105.57;;;1.40;99.90;;;;;;4951675;28;20065;-58
2022/01/14 18:36:38;;;;;;;104.40;82.13;;;1.40;99.90;;;;;;4952114;29;20024;-59
2022/01/14 18:39:04;;;;;;;74.40;56.08;;;1.30;99.90;;;;;;4948591;28;20039;-59
2022/01/14 18:41:31;;;;;;;81.07;61.95;;;1.20;99.90;;;;;;4949621;29;20023;-61
2022/01/14 18:43:57;;;;;;;88.72;67.38;;;1.10;99.90;;;;;;4949590;29;20043;-60
2022/01/14 18:46:24;;;;;;;72.60;56.35;;;1.10;99.90;;;;;;4949173;28;20053;-57
2022/01/14 18:48:57;;;;;;;95.32;71.57;;;1.20;99.90;;;;;;4952969;28;20034;-58
2022/01/14 18:51:23;;;;;;;98.47;73.97;;;1.30;99.90;;;;;;4951079;29;20039;-59
2022/01/14 18:53:50;;;;;;;107.10;70.25;;;1.00;99.90;;;;;;4948882;29;20031;-59
2022/01/14 18:56:17;;;;;;;102.43;66.22;;;0.90;99.90;;;;;;4949412;29;20381;-59
2022/01/14 18:58:44;;;;;;;69.78;43.45;;;0.90;99.90;;;;;;4948868;29;20373;-58
2022/01/14 19:01:10;;;;;;;32.40;24.05;;;0.70;99.90;;;;;;4951556;28;20468;-59
2022/01/14 19:03:35;;;;;;;23.40;19.80;;;0.60;99.90;;;;;;4951488;29;20102;-60
2022/01/14 19:06:01;;;;;;;24.75;20.33;;;0.50;99.90;;;;;;4948409;28;20535;-60
2022/01/14 19:08:27;;;;;;;39.10;32.47;;;0.30;99.90;;;;;;4950397;29;20046;-59
2022/01/14 19:10:52;;;;;;;22.50;19.98;;;0.20;99.90;;;;;;4949411;29;20027;-59
2022/01/14 19:13:22;;;;;;;26.77;21.65;;;0.30;99.90;;;;;;4950274;29;20028;-60
2022/01/14 19:15:48;;;;;;;32.05;27.27;;;0.40;99.90;;;;;;4953330;29;20492;-59
2022/01/14 19:18:13;;;;;;;47.65;37.13;;;0.20;99.90;;;;;;4949229;28;20035;-60
2022/01/14 19:20:39;;;;;;;35.75;29.83;;;0.20;99.90;;;;;;4949386;29;20431;-60
2022/01/14 19:23:05;;;;;;;43.47;35.17;;;0.10;99.90;;;;;;4949085;29;20031;-59
2022/01/14 19:25:31;;;;;;;34.67;30.55;;;0.00;99.90;;;;;;4949822;28;20091;-59
2022/01/14 19:27:57;;;;;;;30.58;26.58;;;-0.20;99.90;;;;;;4952790;28;20500;-59
2022/01/14 19:30:23;;;;;;;38.25;33.28;;;0.10;99.90;;;;;;4950074;29;20055;-59
2022/01/14 19:32:49;;;;;;;40.72;34.55;;;0.20;99.90;;;;;;4949061;29;20023;-59
2022/01/14 19:35:14;;;;;;;39.40;32.22;;;0.20;99.90;;;;;;4949264;29;20051;-59
2022/01/14 19:37:40;;;;;;;43.22;36.30;;;0.10;99.90;;;;;;4949389;29;20020;-60
2022/01/14 19:40:07;;;;;;;40.47;33.58;;;0.10;99.90;;;;;;4951565;28;20055;-58
2022/01/14 19:42:33;;;;;;;75.45;53.53;;;0.10;99.90;;;;;;4954112;28;20031;-59
2022/01/14 19:44:59;;;;;;;269.77;182.98;;;0.10;99.90;;;;;;4952798;28;20071;-58
2022/01/14 19:47:27;;;;;;;59.05;43.30;;;-0.10;99.90;;;;;;4954397;29;20057;-59
2022/01/14 19:49:54;;;;;;;32.65;26.48;;;-0.30;99.90;;;;;;4953067;29;20023;-59
2022/01/14 19:52:20;;;;;;;31.77;26.52;;;-0.40;99.90;;;;;;4953536;28;20024;-59
2022/01/14 19:54:46;;;;;;;33.05;27.42;;;-0.50;99.90;;;;;;4956045;29;20035;-60
2022/01/14 19:57:12;;;;;;;35.00;28.05;;;-0.60;99.90;;;;;;4952920;29;20455;-59
2022/01/14 19:59:37;;;;;;;119.88;96.55;;;-0.30;99.90;;;;;;4952927;29;20027;-59
2022/01/14 20:02:03;;;;;;;147.85;117.45;;;-0.20;99.90;;;;;;4951872;28;20031;-59
2022/01/14 20:04:29;;;;;;;102.72;91.57;;;-0.10;99.90;;;;;;4952995;28;20511;-59
2022/01/14 20:06:55;;;;;;;101.90;83.63;;;0.00;99.90;;;;;;4955837;29;20035;-59
2022/01/14 20:09:21;;;;;;;93.03;77.40;;;-0.10;99.90;;;;;;4953524;29;20030;-59
2022/01/14 20:11:47;;;;;;;84.88;68.88;;;-0.20;99.90;;;;;;4952196;28;20085;-59
2022/01/14 20:14:13;;;;;;;116.45;95.10;;;-0.30;99.90;;;;;;4952672;29;20396;-59
2022/01/14 20:16:39;;;;;;;116.28;95.72;;;-0.30;99.90;;;;;;4952901;29;20027;-58
2022/01/14 20:19:06;;;;;;;109.75;89.72;;;-0.30;99.90;;;;;;4953209;28;20444;-59
2022/01/14 20:21:32;;;;;;;78.55;64.78;;;-0.40;99.90;;;;;;4953834;29;20027;-59
2022/01/14 20:23:58;;;;;;;43.65;34.83;;;-0.40;99.90;;;;;;4952240;29;20098;-59
2022/01/14 20:26:23;;;;;;;96.30;85.72;;;-0.40;99.90;;;;;;4953592;29;20400;-59
2022/01/14 20:28:49;;;;;;;79.18;66.68;;;-0.40;99.90;;;;;;4952329;29;20114;-59
2022/01/14 20:31:19;;;;;;;61.10;50.83;;;-0.40;99.90;;;;;;4953642;29;20089;-60
2022/01/14 20:33:48;;;;;;;54.22;43.42;;;-0.40;99.90;;;;;;4955599;29;20054;-59
2022/01/14 20:36:14;;;;;;;48.60;37.20;;;-0.60;99.90;;;;;;4951738;28;20031;-59
2022/01/14 20:38:41;;;;;;;76.53;49.80;;;-0.80;99.90;;;;;;4952162;29;20568;-59
2022/01/14 20:41:07;;;;;;;80.15;48.72;;;-0.80;99.90;;;;;;4952132;29;20110;-58
2022/01/14 20:43:52;;;;;;;87.20;55.33;;;-0.90;99.90;;;;;;4951470;28;20131;-59